createdAt,value
2023-05-13T00:01:08.053Z,11.50
2023-05-13T00:03:34.503Z,11.25
2023-05-13T00:06:01.288Z,10.95
2023-05-13T00:08:27.553Z,9.90
2023-05-13T00:10:53.758Z,9.95
2023-05-13T00:13:20.207Z,10.55
2023-05-13T00:15:46.431Z,10.57
2023-05-13T00:18:12.831Z,10.98
2023-05-13T00:20:39.040Z,10.98
2023-05-13T00:23:05.317Z,11.02
2023-05-13T00:25:31.544Z,11.77
2023-05-13T00:27:57.733Z,11.50
2023-05-13T00:30:24.071Z,11.35
2023-05-13T00:32:50.599Z,11.35
2023-05-13T00:35:16.976Z,10.73
2023-05-13T00:37:43.654Z,12.07
2023-05-13T00:40:16.096Z,12.18
2023-05-13T00:42:42.292Z,11.25
2023-05-13T00:45:08.835Z,11.35
2023-05-13T00:47:35.155Z,11.07
2023-05-13T00:50:01.647Z,12.13
2023-05-13T00:52:27.902Z,10.55
2023-05-13T00:54:54.135Z,12.82
2023-05-13T00:57:21.033Z,13.05
2023-05-13T00:59:47.258Z,12.10
2023-05-13T01:02:17.831Z,12.15
2023-05-13T01:05:02.786Z,12.67
2023-05-13T01:07:38.081Z,13.65
2023-05-13T01:10:07.248Z,14.07
2023-05-13T01:12:34.979Z,13.27
2023-05-13T01:15:05.933Z,15.07
2023-05-13T01:17:34.035Z,13.95
2023-05-13T01:20:00.612Z,14.52
2023-05-13T01:22:27.664Z,14.93
2023-05-13T01:24:53.908Z,15.00
2023-05-13T01:27:20.218Z,15.00
2023-05-13T01:29:47.653Z,16.05
2023-05-13T01:32:14.037Z,14.60
2023-05-13T01:34:40.899Z,13.90
2023-05-13T01:37:07.292Z,15.45
2023-05-13T01:39:36.615Z,17.73
2023-05-13T01:42:03.169Z,16.02
2023-05-13T01:44:29.445Z,14.48
2023-05-13T01:46:55.754Z,15.10
2023-05-13T01:49:22.029Z,14.48
2023-05-13T01:51:48.231Z,14.60
2023-05-13T01:54:14.463Z,16.67
2023-05-13T01:56:40.736Z,16.88
2023-05-13T01:59:09.944Z,15.52
2023-05-13T02:01:36.858Z,14.77
2023-05-13T02:04:03.760Z,14.68
2023-05-13T02:06:29.996Z,15.35
2023-05-13T02:08:56.203Z,15.23
2023-05-13T02:11:22.532Z,14.60
2023-05-13T02:13:48.766Z,15.00
2023-05-13T02:16:16.264Z,15.43
2023-05-13T02:18:42.595Z,14.32
2023-05-13T02:21:08.935Z,13.73
2023-05-13T02:23:35.151Z,14.13
2023-05-13T02:26:01.344Z,14.07
2023-05-13T02:28:27.538Z,14.02
2023-05-13T02:30:53.749Z,14.32
2023-05-13T02:33:19.980Z,14.15
2023-05-13T02:35:46.165Z,14.70
2023-05-13T02:38:13.039Z,14.07
2023-05-13T02:40:39.250Z,14.65
2023-05-13T02:43:05.558Z,14.63
2023-05-13T02:45:31.756Z,14.05
2023-05-13T02:47:57.980Z,13.18
2023-05-13T02:50:24.407Z,13.35
2023-05-13T02:52:50.669Z,14.43
2023-05-13T02:55:16.925Z,14.45
2023-05-13T02:57:43.148Z,14.40
2023-05-13T03:00:09.817Z,14.73
2023-05-13T03:02:37.199Z,16.35
2023-05-13T03:05:03.908Z,15.85
2023-05-13T03:07:30.085Z,17.42
2023-05-13T03:09:56.293Z,17.35
2023-05-13T03:12:22.546Z,17.08
2023-05-13T03:14:48.850Z,17.73
2023-05-13T03:17:15.045Z,18.33
2023-05-13T03:19:41.253Z,19.77
2023-05-13T03:22:07.499Z,19.65
2023-05-13T03:24:33.753Z,20.35
2023-05-13T03:27:00.025Z,21.73
2023-05-13T03:29:26.260Z,22.00
2023-05-13T03:31:52.790Z,20.70
2023-05-13T03:34:19.147Z,21.85
2023-05-13T03:36:45.355Z,20.30
2023-05-13T03:39:11.609Z,20.30
2023-05-13T03:41:37.839Z,20.00
2023-05-13T03:44:04.169Z,17.65
2023-05-13T03:46:30.528Z,19.42
2023-05-13T03:48:57.043Z,20.52
2023-05-13T03:51:23.247Z,20.35
2023-05-13T03:53:49.450Z,21.25
2023-05-13T03:56:15.694Z,21.70
2023-05-13T03:58:42.218Z,20.83
2023-05-13T04:01:08.503Z,19.80
2023-05-13T04:03:34.862Z,19.92
2023-05-13T04:06:01.074Z,20.08
2023-05-13T04:08:27.445Z,20.77
2023-05-13T04:10:54.329Z,22.40
2023-05-13T04:13:20.638Z,20.13
2023-05-13T04:15:46.926Z,21.80
2023-05-13T04:18:13.272Z,24.38
2023-05-13T04:20:39.823Z,24.67
2023-05-13T04:23:06.294Z,24.92
2023-05-13T04:25:32.716Z,24.00
2023-05-13T04:27:58.914Z,25.23
2023-05-13T04:30:25.271Z,23.58
2023-05-13T04:32:51.563Z,23.45
2023-05-13T04:35:17.868Z,21.52
2023-05-13T04:37:44.801Z,22.23
2023-05-13T04:40:11.221Z,21.40
2023-05-13T04:42:37.536Z,19.90
2023-05-13T04:45:03.926Z,21.27
2023-05-13T04:47:30.298Z,19.65
2023-05-13T04:49:56.534Z,23.63
2023-05-13T04:52:23.238Z,21.48
2023-05-13T04:54:49.507Z,22.17
2023-05-13T04:57:15.742Z,22.08
2023-05-13T04:59:41.943Z,20.70
2023-05-13T05:02:08.207Z,21.60
2023-05-13T05:04:34.477Z,19.67
2023-05-13T05:07:00.688Z,21.90
2023-05-13T05:09:26.900Z,20.08
2023-05-13T05:11:53.130Z,21.50
2023-05-13T05:14:20.132Z,19.77
2023-05-13T05:16:46.353Z,19.08
2023-05-13T05:19:12.593Z,18.85
2023-05-13T05:21:38.873Z,18.27
2023-05-13T05:24:05.757Z,18.02
2023-05-13T05:26:31.990Z,16.13
2023-05-13T05:28:58.294Z,16.10
2023-05-13T05:31:24.670Z,16.50
2023-05-13T05:33:51.014Z,15.35
2023-05-13T05:36:17.490Z,15.85
2023-05-13T05:38:43.740Z,15.65
2023-05-13T05:41:10.023Z,13.00
2023-05-13T05:43:36.230Z,16.20
2023-05-13T05:46:02.497Z,15.00
2023-05-13T05:48:28.852Z,15.50
2023-05-13T05:50:56.211Z,14.60
2023-05-13T05:53:22.476Z,13.88
2023-05-13T05:55:49.377Z,13.15
2023-05-13T05:58:16.897Z,13.02
2023-05-13T06:00:43.218Z,13.20
2023-05-13T06:03:09.778Z,13.38
2023-05-13T06:05:36.192Z,13.32
2023-05-13T06:08:02.413Z,13.43
2023-05-13T06:10:28.737Z,11.35
2023-05-13T06:12:55.055Z,11.10
2023-05-13T06:15:21.293Z,12.18
2023-05-13T06:17:47.575Z,12.55
2023-05-13T06:20:14.022Z,11.88
2023-05-13T06:22:41.037Z,10.70
2023-05-13T06:25:07.400Z,11.43
2023-05-13T06:27:33.996Z,11.00
2023-05-13T06:30:00.761Z,12.43
2023-05-13T06:32:26.982Z,11.57
2023-05-13T06:34:55.704Z,11.02
2023-05-13T06:37:22.222Z,11.15
2023-05-13T06:39:48.485Z,10.07
2023-05-13T06:42:14.717Z,10.52
2023-05-13T06:44:40.954Z,11.00
2023-05-13T06:47:08.518Z,9.10
2023-05-13T06:49:34.777Z,8.82
2023-05-13T06:52:01.019Z,9.48
2023-05-13T06:54:27.612Z,10.00
2023-05-13T06:56:54.581Z,9.43
2023-05-13T06:59:21.669Z,9.75
2023-05-13T07:01:47.984Z,9.98
2023-05-13T07:04:14.976Z,9.48
2023-05-13T07:06:41.320Z,8.93
2023-05-13T07:09:09.562Z,8.90
2023-05-13T07:11:36.120Z,8.63
2023-05-13T07:14:02.348Z,7.53
2023-05-13T07:16:28.588Z,7.50
2023-05-13T07:18:54.845Z,7.55
2023-05-13T07:21:21.728Z,8.43
2023-05-13T07:23:48.333Z,7.15
2023-05-13T07:26:14.733Z,7.40
2023-05-13T07:28:40.921Z,7.07
2023-05-13T07:31:07.497Z,6.60
2023-05-13T07:33:33.796Z,7.25
2023-05-13T07:36:00.044Z,7.03
2023-05-13T07:38:26.456Z,6.85
2023-05-13T07:40:52.689Z,6.65
2023-05-13T07:43:23.893Z,6.10
2023-05-13T07:45:51.087Z,6.63
2023-05-13T07:48:17.812Z,5.50
2023-05-13T07:50:44.711Z,4.70
2023-05-13T07:53:10.929Z,5.35
2023-05-13T07:55:37.155Z,6.32
2023-05-13T07:58:03.432Z,6.07
2023-05-13T08:00:29.698Z,5.55
2023-05-13T08:02:56.136Z,5.93
2023-05-13T08:05:22.597Z,5.63
2023-05-13T08:07:49.083Z,6.03
2023-05-13T08:10:15.487Z,6.22
2023-05-13T08:12:41.916Z,5.68
2023-05-13T08:15:08.640Z,5.60
2023-05-13T08:17:35.020Z,5.78
2023-05-13T08:20:01.910Z,5.93
2023-05-13T08:22:28.131Z,6.35
2023-05-13T08:24:54.606Z,5.47
2023-05-13T08:27:20.900Z,6.07
2023-05-13T08:29:47.171Z,6.70
2023-05-13T08:32:13.654Z,6.32
2023-05-13T08:34:40.223Z,5.88
2023-05-13T08:37:06.453Z,5.85
2023-05-13T08:39:32.687Z,6.05
2023-05-13T08:41:59.931Z,5.28
2023-05-13T08:44:29.193Z,5.53
2023-05-13T08:47:02.044Z,6.10
2023-05-13T08:49:28.463Z,5.18
2023-05-13T08:51:54.753Z,6.10
2023-05-13T08:54:23.875Z,6.03
2023-05-13T08:56:51.148Z,6.22
2023-05-13T08:59:18.005Z,5.90
2023-05-13T09:01:44.818Z,6.65
2023-05-13T09:04:11.497Z,5.40
2023-05-13T09:06:37.812Z,5.80
2023-05-13T09:09:05.717Z,6.07
2023-05-13T09:11:33.858Z,5.47
2023-05-13T09:14:01.766Z,6.28
2023-05-13T09:16:28.490Z,5.80
2023-05-13T09:19:03.608Z,5.55
2023-05-13T09:21:31.696Z,5.68
2023-05-13T09:24:09.577Z,5.18
2023-05-13T09:26:37.544Z,5.55
2023-05-13T09:29:23.041Z,5.18
2023-05-13T09:31:59.481Z,5.47
2023-05-13T09:34:26.815Z,5.60
2023-05-13T09:37:03.403Z,5.95
2023-05-13T09:39:32.942Z,6.00
2023-05-13T09:42:01.716Z,6.18
2023-05-13T09:44:29.715Z,5.80
2023-05-13T09:46:55.974Z,7.32
2023-05-13T09:49:23.028Z,7.60
2023-05-13T09:51:49.253Z,8.05
2023-05-13T09:54:16.254Z,7.28
2023-05-13T09:56:43.097Z,6.75
2023-05-13T09:59:09.786Z,6.60
2023-05-13T10:01:39.594Z,6.90
2023-05-13T10:04:06.273Z,7.25
2023-05-13T10:06:33.131Z,7.07
2023-05-13T10:09:01.582Z,6.70
2023-05-13T10:11:29.599Z,6.68
2023-05-13T10:13:58.661Z,7.20
2023-05-13T10:16:25.250Z,6.88
2023-05-13T10:18:51.806Z,6.78
2023-05-13T10:21:19.152Z,7.22
2023-05-13T10:23:51.880Z,7.70
2023-05-13T10:26:18.921Z,6.68
2023-05-13T10:28:45.404Z,7.47
2023-05-13T10:31:11.624Z,7.30
2023-05-13T10:33:37.919Z,7.07
2023-05-13T10:36:04.072Z,6.70
2023-05-13T10:38:43.438Z,7.13
2023-05-13T10:41:25.349Z,6.55
2023-05-13T10:43:56.602Z,6.97
2023-05-13T10:48:55.774Z,7.43
2023-05-13T10:51:25.821Z,7.63
2023-05-13T10:53:52.866Z,8.25
2023-05-13T10:56:22.971Z,8.05
2023-05-13T10:58:59.637Z,8.57
2023-05-13T11:01:35.881Z,8.50
2023-05-13T11:04:03.754Z,7.72
2023-05-13T11:06:30.120Z,8.55
2023-05-13T11:08:56.582Z,8.55
2023-05-13T11:11:24.086Z,7.82
2023-05-13T11:13:54.373Z,8.32
2023-05-13T11:16:21.037Z,7.88
2023-05-13T11:18:47.508Z,7.82
2023-05-13T11:21:13.804Z,8.02
2023-05-13T11:24:00.821Z,7.07
2023-05-13T11:26:28.490Z,6.85
2023-05-13T11:28:54.754Z,7.32
2023-05-13T11:31:21.639Z,8.13
2023-05-13T11:34:07.101Z,7.68
2023-05-13T11:36:34.628Z,6.43
2023-05-13T11:39:06.833Z,3.55
2023-05-13T11:41:33.426Z,3.80
2023-05-13T11:43:59.893Z,3.22
2023-05-13T11:46:26.153Z,3.30
2023-05-13T11:48:52.428Z,3.33
2023-05-13T11:51:18.714Z,3.10
2023-05-13T11:53:44.961Z,3.50
2023-05-13T11:56:12.682Z,3.15
2023-05-13T11:58:38.934Z,3.53
2023-05-13T12:01:05.137Z,3.67
2023-05-13T12:03:31.543Z,3.85
2023-05-13T12:06:03.936Z,3.78
2023-05-13T12:08:30.207Z,3.88
2023-05-13T12:10:56.486Z,3.50
2023-05-13T12:13:22.799Z,3.55
2023-05-13T12:15:49.622Z,4.88
2023-05-13T12:18:16.093Z,4.53
2023-05-13T12:20:42.326Z,3.92
2023-05-13T12:23:11.458Z,4.22
2023-05-13T12:25:41.858Z,4.18
2023-05-13T12:28:20.824Z,4.47
2023-05-13T12:30:50.507Z,4.05
2023-05-13T12:33:17.614Z,4.13
2023-05-13T12:35:44.408Z,3.70
2023-05-13T12:38:14.118Z,3.50
2023-05-13T12:40:40.328Z,4.10
2023-05-13T12:43:06.560Z,3.95
2023-05-13T12:45:33.416Z,4.05
2023-05-13T12:47:59.908Z,4.32
2023-05-13T12:50:26.257Z,4.50
2023-05-13T12:52:53.208Z,4.07
2023-05-13T12:55:19.779Z,4.18
2023-05-13T12:58:15.326Z,4.55
2023-05-13T13:00:41.550Z,4.10
2023-05-13T13:03:08.384Z,3.55
2023-05-13T13:05:34.986Z,3.67
2023-05-13T13:08:01.760Z,3.35
2023-05-13T13:10:28.285Z,3.60
2023-05-13T13:12:54.485Z,2.88
2023-05-13T13:15:20.986Z,3.42
2023-05-13T13:17:47.586Z,3.20
2023-05-13T13:20:13.940Z,2.92
2023-05-13T13:22:40.173Z,3.17
2023-05-13T13:25:06.525Z,3.75
2023-05-13T13:27:33.553Z,3.20
2023-05-13T13:29:59.900Z,3.13
2023-05-13T13:32:26.229Z,3.50
2023-05-13T13:34:52.589Z,4.85
2023-05-13T13:37:18.815Z,4.32
2023-05-13T13:39:45.022Z,3.58
2023-05-13T13:42:11.364Z,3.28
2023-05-13T13:44:39.315Z,3.15
2023-05-13T13:47:05.660Z,2.85
2023-05-13T13:49:31.877Z,2.80
2023-05-13T13:51:58.096Z,3.08
2023-05-13T13:54:24.544Z,2.55
2023-05-13T13:56:50.800Z,2.67
2023-05-13T13:59:19.101Z,2.67
2023-05-13T14:01:45.493Z,2.55
2023-05-13T14:04:11.899Z,3.00
2023-05-13T14:06:38.249Z,2.55
2023-05-13T14:09:04.952Z,2.92
2023-05-13T14:11:31.270Z,3.70
2023-05-13T14:13:57.467Z,3.45
2023-05-13T14:16:23.849Z,3.28
2023-05-13T14:18:50.199Z,3.75
2023-05-13T14:21:16.538Z,3.03
2023-05-13T14:23:43.241Z,3.15
2023-05-13T14:26:10.715Z,3.40
2023-05-13T14:28:36.937Z,3.13
2023-05-13T14:31:03.253Z,3.20
2023-05-13T14:33:30.753Z,3.10
2023-05-13T14:35:57.022Z,3.28
2023-05-13T14:38:23.217Z,3.10
2023-05-13T14:40:49.449Z,3.33
2023-05-13T14:43:15.673Z,3.42
2023-05-13T14:45:41.868Z,3.25
2023-05-13T14:48:08.143Z,3.92
2023-05-13T14:50:35.436Z,3.70
2023-05-13T14:53:01.662Z,3.75
2023-05-13T14:55:27.885Z,3.50
2023-05-13T14:57:54.416Z,3.53
2023-05-13T15:00:21.016Z,3.80
2023-05-13T15:02:47.548Z,3.72
2023-05-13T15:05:13.875Z,3.58
2023-05-13T15:07:40.436Z,3.22
2023-05-13T15:10:06.856Z,3.58
2023-05-13T15:12:33.104Z,3.67
2023-05-13T15:14:59.340Z,3.58
2023-05-13T15:17:26.105Z,3.35
2023-05-13T15:19:52.313Z,3.67
2023-05-13T15:22:18.577Z,3.70
2023-05-13T15:24:44.819Z,3.80
2023-05-13T15:27:11.051Z,3.60
2023-05-13T15:29:37.276Z,3.05
2023-05-13T15:32:03.662Z,3.60
2023-05-13T15:34:29.867Z,3.42
2023-05-13T15:36:56.066Z,3.63
2023-05-13T15:39:22.833Z,3.72
2023-05-13T15:41:49.122Z,3.00
2023-05-13T15:44:16.108Z,3.35
2023-05-13T15:46:42.499Z,2.85
2023-05-13T15:49:09.337Z,3.33
2023-05-13T15:51:35.599Z,3.38
2023-05-13T15:54:01.989Z,3.20
2023-05-13T15:56:28.199Z,3.08
2023-05-13T15:58:55.736Z,3.20
2023-05-13T16:01:22.082Z,2.83
2023-05-13T16:03:48.739Z,3.70
2023-05-13T16:06:15.016Z,3.78
2023-05-13T16:08:41.238Z,3.63
2023-05-13T16:11:07.438Z,3.67
2023-05-13T16:13:33.677Z,3.58
2023-05-13T16:15:59.966Z,4.70
2023-05-13T16:18:26.664Z,4.25
2023-05-13T16:20:52.975Z,3.50
2023-05-13T16:23:19.176Z,3.85
2023-05-13T16:25:45.385Z,3.42
2023-05-13T16:28:11.637Z,3.80
2023-05-13T16:30:38.710Z,3.30
2023-05-13T16:33:05.277Z,3.17
2023-05-13T16:35:31.573Z,3.05
2023-05-13T16:37:57.800Z,3.20
2023-05-13T16:40:24.243Z,2.90
2023-05-13T16:42:51.373Z,3.42
2023-05-13T16:45:17.615Z,3.20
2023-05-13T16:47:43.942Z,3.15
2023-05-13T16:50:10.309Z,3.30
2023-05-13T16:52:36.538Z,3.35
2023-05-13T16:55:02.996Z,3.15
2023-05-13T16:57:29.244Z,3.50
2023-05-13T16:59:55.439Z,3.22
2023-05-13T17:02:21.745Z,3.83
2023-05-13T17:04:48.034Z,4.20
2023-05-13T17:07:14.270Z,12.85
2023-05-13T17:09:40.542Z,6.60
2023-05-13T17:12:06.901Z,5.50
2023-05-13T17:14:33.182Z,4.70
2023-05-13T17:16:59.568Z,4.82
2023-05-13T17:19:25.884Z,4.53
2023-05-13T17:21:52.543Z,4.22
2023-05-13T17:24:18.855Z,4.18
2023-05-13T17:26:45.128Z,3.88
2023-05-13T17:29:11.333Z,4.40
2023-05-13T17:31:37.673Z,4.15
2023-05-13T17:34:04.238Z,4.90
2023-05-13T17:36:32.480Z,4.57
2023-05-13T17:38:58.803Z,3.95
2023-05-13T17:41:24.995Z,4.55
2023-05-13T17:43:51.194Z,4.38
2023-05-13T17:46:17.556Z,4.75
2023-05-13T17:48:43.894Z,4.32
2023-05-13T17:51:12.136Z,4.78
2023-05-13T17:53:38.339Z,4.90
2023-05-13T17:56:08.105Z,4.30
2023-05-13T17:58:34.549Z,4.00
2023-05-13T18:01:00.798Z,3.83
2023-05-13T18:03:26.987Z,3.90
2023-05-13T18:05:53.256Z,4.18
2023-05-13T18:08:19.537Z,4.40
2023-05-13T18:10:46.669Z,3.90
2023-05-13T18:13:13.016Z,3.92
2023-05-13T18:15:39.282Z,4.20
2023-05-13T18:18:05.981Z,3.72
2023-05-13T18:20:32.807Z,4.72
2023-05-13T18:22:59.369Z,4.30
2023-05-13T18:25:25.806Z,4.20
2023-05-13T18:27:52.089Z,4.10
2023-05-13T18:30:18.451Z,4.25
2023-05-13T18:32:44.721Z,4.72
2023-05-13T18:35:11.007Z,4.43
2023-05-13T18:37:37.258Z,4.03
2023-05-13T18:40:03.694Z,4.18
2023-05-13T18:42:29.951Z,4.57
2023-05-13T18:44:56.157Z,4.32
2023-05-13T18:47:22.358Z,4.20
2023-05-13T18:49:48.575Z,4.28
2023-05-13T18:52:14.876Z,4.60
2023-05-13T18:54:41.485Z,4.70
2023-05-13T18:57:07.764Z,4.47
2023-05-13T18:59:33.950Z,4.32
2023-05-13T19:02:00.282Z,4.45
2023-05-13T19:04:26.816Z,4.35
2023-05-13T19:06:53.203Z,4.60
2023-05-13T19:09:21.353Z,4.38
2023-05-13T19:11:47.552Z,4.65
2023-05-13T19:14:13.750Z,4.85
2023-05-13T19:16:40.002Z,4.93
2023-05-13T19:19:06.379Z,4.65
2023-05-13T19:21:33.154Z,5.43
2023-05-13T19:23:59.406Z,5.43
2023-05-13T19:26:25.635Z,5.80
2023-05-13T19:28:52.036Z,5.25
2023-05-13T19:31:18.407Z,5.95
2023-05-13T19:33:46.189Z,5.28
2023-05-13T19:36:12.904Z,6.00
2023-05-13T19:38:39.181Z,5.80
2023-05-13T19:41:05.505Z,6.40
2023-05-13T19:43:31.758Z,5.70
2023-05-13T19:45:57.983Z,5.60
2023-05-13T19:48:24.267Z,5.70
2023-05-13T19:50:53.273Z,5.95
2023-05-13T19:53:20.572Z,6.68
2023-05-13T19:55:47.299Z,5.97
2023-05-13T19:58:13.582Z,5.82
2023-05-13T20:00:39.769Z,6.50
2023-05-13T20:03:06.199Z,6.18
2023-05-13T20:05:32.442Z,6.10
2023-05-13T20:07:58.632Z,6.88
2023-05-13T20:10:25.087Z,7.03
2023-05-13T20:12:51.443Z,6.97
2023-05-13T20:15:18.657Z,6.82
2023-05-13T20:17:45.492Z,6.35
2023-05-13T20:20:12.040Z,7.30
2023-05-13T20:22:38.308Z,6.95
2023-05-13T20:25:04.689Z,7.15
2023-05-13T20:27:30.963Z,7.57
2023-05-13T20:29:57.224Z,7.25
2023-05-13T20:32:25.060Z,6.97
2023-05-13T20:34:54.468Z,6.82
2023-05-13T20:37:23.509Z,7.63
2023-05-13T20:39:50.408Z,7.15
2023-05-13T20:42:16.857Z,7.45
2023-05-13T20:44:44.941Z,7.65
2023-05-13T20:47:11.229Z,7.90
2023-05-13T20:49:38.449Z,7.40
2023-05-13T20:52:06.350Z,8.00
2023-05-13T20:54:33.998Z,9.13
2023-05-13T20:57:02.869Z,10.07
2023-05-13T20:59:29.514Z,10.48
2023-05-13T21:01:55.726Z,10.43
2023-05-13T21:04:22.660Z,9.15
2023-05-13T21:06:48.877Z,8.82
2023-05-13T21:09:15.114Z,10.02
2023-05-13T21:11:41.367Z,9.57
2023-05-13T21:14:07.561Z,10.15
2023-05-13T21:16:35.812Z,9.68
2023-05-13T21:19:02.157Z,8.90
2023-05-13T21:21:28.442Z,10.10
2023-05-13T21:23:54.646Z,10.18
2023-05-13T21:26:21.801Z,10.05
2023-05-13T21:28:48.032Z,9.57
2023-05-13T21:31:14.312Z,9.35
2023-05-13T21:33:40.543Z,9.50
2023-05-13T21:36:06.868Z,9.80
2023-05-13T21:38:33.078Z,9.45
2023-05-13T21:40:59.625Z,9.32
2023-05-13T21:43:25.838Z,9.50
2023-05-13T21:45:52.050Z,10.30
2023-05-13T21:48:19.078Z,10.45
2023-05-13T21:50:45.445Z,10.65
2023-05-13T21:53:11.701Z,9.65
2023-05-13T21:55:37.936Z,9.50
2023-05-13T21:58:04.120Z,9.15
2023-05-13T22:00:31.421Z,9.30
2023-05-13T22:02:57.929Z,10.52
2023-05-13T22:05:24.232Z,9.68
2023-05-13T22:07:50.766Z,9.38
2023-05-13T22:10:16.995Z,9.32
2023-05-13T22:12:43.190Z,9.00
2023-05-13T22:15:09.667Z,9.50
2023-05-13T22:17:35.992Z,9.13
2023-05-13T22:20:02.281Z,9.68
2023-05-13T22:22:28.613Z,9.82
2023-05-13T22:24:54.852Z,9.63
2023-05-13T22:27:21.309Z,10.95
2023-05-13T22:29:47.516Z,9.93
2023-05-13T22:32:13.983Z,9.02
2023-05-13T22:34:40.375Z,9.32
2023-05-13T22:37:06.738Z,10.23
2023-05-13T22:39:32.998Z,11.05
2023-05-13T22:41:59.249Z,10.38
2023-05-13T22:44:25.476Z,10.70
2023-05-13T22:46:52.849Z,11.10
2023-05-13T22:49:19.176Z,10.48
2023-05-13T22:51:45.408Z,11.15
2023-05-13T22:54:11.624Z,10.13
2023-05-13T22:56:37.926Z,10.05
2023-05-13T22:59:04.438Z,9.38
2023-05-13T23:01:31.007Z,9.80
2023-05-13T23:03:57.264Z,9.25
2023-05-13T23:06:23.523Z,9.85
2023-05-13T23:08:49.723Z,11.52
2023-05-13T23:11:15.924Z,9.75
2023-05-13T23:13:42.110Z,10.27
2023-05-13T23:16:08.350Z,10.25
2023-05-13T23:18:34.574Z,10.50
2023-05-13T23:21:01.429Z,10.30
2023-05-13T23:23:27.647Z,10.18
2023-05-13T23:25:53.852Z,10.82
2023-05-13T23:28:20.045Z,11.50
2023-05-13T23:30:46.260Z,9.88
2023-05-13T23:33:12.456Z,10.00
2023-05-13T23:35:38.739Z,10.15
2023-05-13T23:38:04.939Z,11.02
2023-05-13T23:40:31.214Z,10.40
2023-05-13T23:42:57.486Z,10.48
2023-05-13T23:45:23.685Z,9.50
2023-05-13T23:47:50.212Z,9.82
2023-05-13T23:50:16.467Z,9.80
2023-05-13T23:52:42.697Z,8.95
2023-05-13T23:55:08.942Z,8.88
2023-05-13T23:57:35.198Z,10.60
